Cochise — WDD8952 — position and weather

sailwx.info

Track history (hours):
 
Tides and Currents Weather Stations Pressure Air Temp Water Temp Dewpoint Dewpoint Depression Visibility Wind Speed Wind Dir Waves Ship Positions

Cochise

Owner: Sause Bros, Coos Bay, OR. More information available from US FCC via Universal Licensing System and Coast Guard Vessel Documentation Center.

Last reported at 2017-Dec-16 07:00 UTC. Time now 2017-Dec-16 07:17 UTC.
Position N 38°04' W 123°19'.

Length 32 m; draft 4.6 m.

Type: Towing. MMSI: 367304990.

Date/timePositionNaut miles runAvg speedWind from/ knotsBaromVisibWave heightAir tempDewpointWater temp
2017-Dec-16 07:00N 38°04' W 123°19'5 9.2
2017-Dec-16 06:30N 38°08' W 123°22'4 9.0
2017-Dec-16 06:00N 38°11' W 123°27'5 9.2
2017-Dec-16 05:30N 38°14' W 123°31'5 9.1
2017-Dec-16 05:00N 38°17' W 123°35'4 8.7
2017-Dec-16 04:30N 38°20' W 123°39'4 8.5
2017-Dec-16 04:00N 38°22' W 123°44'4 8.6
2017-Dec-16 03:30N 38°25' W 123°48'4 8.6
2017-Dec-16 03:00N 38°28' W 123°52'4 8.4
2017-Dec-16 02:29N 38°31' W 123°56'4 8.0
2017-Dec-16 01:59N 38°33' W 124°00'397 9.4
2017-Dec-14 07:35N 45°09' W 124°27'210.3
2017-Dec-14 07:26N 45°11' W 124°26'410.3
2017-Dec-14 07:00N 45°15' W 124°25'510.1
2017-Dec-14 06:30N 45°20' W 124°24'510.1
2017-Dec-14 06:00N 45°25' W 124°23'510.1
2017-Dec-14 05:30N 45°30' W 124°22'510.1
2017-Dec-14 05:00N 45°35' W 124°23'5 9.6
2017-Dec-14 04:31N 45°40' W 124°21'5 9.5
2017-Dec-14 04:00N 45°44' W 124°18'5 9.8
2017-Dec-14 03:30N 45°49' W 124°17'510.0
2017-Dec-14 03:00N 45°54' W 124°16'510.0
2017-Dec-14 02:30N 45°59' W 124°15'510.3
2017-Dec-14 02:00N 46°04' W 124°13'510.2
2017-Dec-14 01:30N 46°09' W 124°11'510.0
2017-Dec-14 01:00N 46°13' W 124°08'510.5
2017-Dec-14 00:30N 46°15' W 124°01'613.0
2017-Dec-14 00:00N 46°11' W 123°53'712.9
2017-Dec-13 23:28N 46°14' W 123°43'612.3
2017-Dec-13 23:00N 46°15' W 123°36'611.6
2017-Dec-13 22:31N 46°16' W 123°27'611.4
2017-Dec-13 22:00N 46°10' W 123°25'611.0
2017-Dec-13 21:30N 46°09' W 123°17'611.4
2017-Dec-13 21:00N 46°11' W 123°10'510.9
2017-Dec-13 20:30N 46°09' W 123°03'510.6
2017-Dec-13 19:59N 46°06' W 122°56'5 9.8
2017-Dec-13 19:30N 46°02' W 122°53'510.5
2017-Dec-13 19:00N 45°57' W 122°49'510.8
2017-Dec-13 18:30N 45°52' W 122°47'511.0
2017-Dec-13 18:00N 45°47' W 122°46'611.6
2017-Dec-13 17:30N 45°41' W 122°47'5 9.1
2017-Dec-13 17:00N 45°36' W 122°47'3 6.0
2017-Dec-13 16:30N 45°34' W 122°44'0 0.3
2017-Dec-13 16:00N 45°34' W 122°44'0 0.1
2017-Dec-13 15:30N 45°34' W 122°44'2 3.5
2017-Dec-13 15:00N 45°33' W 122°42'0 0.0
2017-Dec-13 14:31N 45°33' W 122°42'0 0.0
2017-Dec-13 14:00N 45°33' W 122°42'0 0.0
2017-Dec-13 13:30N 45°33' W 122°42'0 0.0
2017-Dec-13 13:00N 45°33' W 122°42'0 0.0
2017-Dec-13 12:30N 45°33' W 122°42'0 0.0
2017-Dec-13 12:00N 45°33' W 122°42'0 0.0
2017-Dec-13 11:30N 45°33' W 122°42'0 0.0
2017-Dec-13 11:00N 45°33' W 122°42'0 0.0
2017-Dec-13 10:31N 45°33' W 122°42'1 3.0
2017-Dec-13 10:00N 45°34' W 122°44'0 0.0
2017-Dec-13 09:30N 45°34' W 122°44'0 0.0
2017-Dec-13 09:00N 45°34' W 122°44'0 0.0
2017-Dec-13 08:30N 45°34' W 122°44'0 0.0
2017-Dec-13 08:00N 45°34' W 122°44'0 0.0
2017-Dec-13 07:31N 45°34' W 122°44'0 0.0
2017-Dec-13 07:01N 45°34' W 122°44'0 0.0
2017-Dec-13 06:31N 45°34' W 122°44'0 0.0
2017-Dec-13 06:01N 45°34' W 122°44'0 0.0
2017-Dec-13 05:30N 45°34' W 122°44'0 0.0
2017-Dec-13 05:00N 45°34' W 122°44'1 1.9
2017-Dec-13 04:30N 45°33' W 122°43'1 1.1
2017-Dec-13 04:00N 45°33' W 122°42'0 0.0
2017-Dec-13 03:30N 45°33' W 122°42'2 3.4
2017-Dec-13 03:00N 45°34' W 122°44'0 0.1
2017-Dec-13 02:30N 45°34' W 122°44'1 1.7
2017-Dec-13 02:00N 45°35' W 122°45'4 7.5
2017-Dec-13 01:29N 45°39' W 122°47'4 7.8
2017-Dec-13 01:01N 45°42' W 122°46'4 8.0
2017-Dec-13 00:30N 45°46' W 122°46'4 7.7
2017-Dec-13 00:01N 45°50' W 122°47'4 7.4
2017-Dec-12 23:30N 45°54' W 122°48'4 7.7
2017-Dec-12 23:00N 45°58' W 122°49'4 7.9
2017-Dec-12 22:31N 46°01' W 122°51'4 7.8
2017-Dec-12 22:01N 46°05' W 122°54'4 8.0
2017-Dec-12 21:31N 46°07' W 122°58'4 8.2
2017-Dec-12 21:00N 46°09' W 123°03'4 8.4
2017-Dec-12 20:30N 46°11' W 123°08'4 8.3
2017-Dec-12 20:01N 46°10' W 123°14'5 8.5
2017-Dec-12 19:25N 46°09' W 123°21'4 8.7
2017-Dec-12 18:58N 46°11' W 123°26'4 9.0
2017-Dec-12 18:30N 46°15' W 123°26'4 8.5
2017-Dec-12 18:00N 46°16' W 123°33'5 9.8
2017-Dec-12 17:31N 46°15' W 123°40'510.0
2017-Dec-12 17:00N 46°13' W 123°46'510.0
2017-Dec-12 16:30N 46°11' W 123°53'5 9.6
2017-Dec-12 16:00N 46°14' W 123°59'5 9.1
2017-Dec-12 15:30N 46°15' W 124°05'4 8.7
2017-Dec-12 15:00N 46°12' W 124°10'4 8.9
2017-Dec-12 14:30N 46°09' W 124°15'5 9.4
2017-Dec-12 14:00N 46°06' W 124°19'5 9.5
2017-Dec-12 13:31N 46°02' W 124°24'5 9.3
2017-Dec-12 13:00N 45°59' W 124°29'5 9.4
2017-Dec-12 12:30N 45°56' W 124°33'5 9.1
2017-Dec-12 12:00N 45°52' W 124°37'5 9.6
2017-Dec-12 11:30N 45°47' W 124°37'5 9.5
2017-Dec-12 11:00N 45°42' W 124°37'5 9.3
2017-Dec-12 10:30N 45°38' W 124°38'5 9.6
2017-Dec-12 10:00N 45°33' W 124°38'5 9.6
2017-Dec-12 09:30N 45°28' W 124°39'5 9.3
2017-Dec-12 09:00N 45°23' W 124°39'5 9.3
2017-Dec-12 08:30N 45°19' W 124°39'5 9.4
2017-Dec-12 08:00N 45°14' W 124°40'5 9.5
2017-Dec-12 07:30N 45°09' W 124°41'5 9.4
2017-Dec-12 07:00N 45°05' W 124°41'5 9.1
2017-Dec-12 06:30N 45°00' W 124°42'14 9.0
2017-Dec-12 04:56N 44°46' W 124°42'378 9.1
2017-Dec-10 11:19N 38°29' W 123°58'3 9.5
2017-Dec-10 10:57N 38°26' W 123°55'4 9.5
2017-Dec-10 10:30N 38°23' W 123°52'5 9.4
2017-Dec-10 10:00N 38°19' W 123°48'5 9.1
2017-Dec-10 09:30N 38°17' W 123°43'5 9.2
2017-Dec-10 08:59N 38°15' W 123°37'4 9.1
2017-Dec-10 08:30N 38°14' W 123°32'5 9.2
2017-Dec-10 08:00N 38°12' W 123°27'5 9.0
2017-Dec-10 07:30N 38°10' W 123°22'5 9.0
2017-Dec-10 07:00N 38°07' W 123°18'4 9.1
2017-Dec-10 06:30N 38°03' W 123°14'5 9.2
2017-Dec-10 06:00N 38°00' W 123°10'5 9.1
2017-Dec-10 05:30N 37°57' W 123°05'5 9.1
2017-Dec-10 05:00N 37°55' W 123°00'5 9.4
2017-Dec-10 04:30N 37°53' W 122°55'5 9.4
2017-Dec-10 03:59N 37°50' W 122°50'5 9.6
2017-Dec-10 03:26N 37°47' W 122°44'4 9.7
2017-Dec-10 03:00N 37°46' W 122°39'510.3
2017-Dec-10 02:30N 37°48' W 122°33'511.0
2017-Dec-10 02:00N 37°50' W 122°27'4 8.2
2017-Dec-10 01:30N 37°54' W 122°25'1 2.9
2017-Dec-10 01:00N 37°54' W 122°23'1 2.5
2017-Dec-10 00:30N 37°55' W 122°22'0 0.0
2017-Dec-10 00:01N 37°55' W 122°22'0 0.0
2017-Dec-09 23:24N 37°55' W 122°22'0 0.0
2017-Dec-09 23:00N 37°55' W 122°22'0 0.0
2017-Dec-09 22:30N 37°55' W 122°22'0 0.0
2017-Dec-09 22:00N 37°55' W 122°22'0 0.0
2017-Dec-09 21:30N 37°55' W 122°22'0 0.0
2017-Dec-09 21:00N 37°55' W 122°22'0 0.0
2017-Dec-09 20:30N 37°55' W 122°22'0 0.0
2017-Dec-09 19:57N 37°55' W 122°22'0 0.0
2017-Dec-09 19:30N 37°55' W 122°22'0 0.0
2017-Dec-09 18:57N 37°55' W 122°22'0 0.0
2017-Dec-09 18:27N 37°55' W 122°22'0 0.0
2017-Dec-09 18:00N 37°55' W 122°22'0 0.1
2017-Dec-09 17:27N 37°55' W 122°22'0 0.1
2017-Dec-09 17:00N 37°55' W 122°22'0 0.1
2017-Dec-09 16:27N 37°55' W 122°22'0 0.1
2017-Dec-09 16:00N 37°55' W 122°22'0 0.0
2017-Dec-09 15:30N 37°55' W 122°22'0 0.0
2017-Dec-09 15:00N 37°55' W 122°22'0 0.0
2017-Dec-09 14:30N 37°55' W 122°22'0 0.0
2017-Dec-09 14:00N 37°55' W 122°22'0 0.0
2017-Dec-09 13:30N 37°55' W 122°22'0 0.0
2017-Dec-09 13:00N 37°55' W 122°22'0 0.0
2017-Dec-09 12:30N 37°55' W 122°22'0 0.0
2017-Dec-09 12:00N 37°55' W 122°22'0 0.0
2017-Dec-09 11:30N 37°55' W 122°22'0 0.0
2017-Dec-09 11:00N 37°55' W 122°22'0 0.0
2017-Dec-09 10:30N 37°55' W 122°22'0 0.1
2017-Dec-09 10:00N 37°55' W 122°22'0 0.1
2017-Dec-09 09:30N 37°55' W 122°22'0 0.0
2017-Dec-09 09:00N 37°55' W 122°22'0 0.0
2017-Dec-09 08:27N 37°55' W 122°22'0 0.0
2017-Dec-09 07:57N 37°55' W 122°22'0 0.0
2017-Dec-09 07:30N 37°55' W 122°22'0 0.0
2017-Dec-09 06:51N 37°55' W 122°22'0 0.0
2017-Dec-09 06:30N 37°55' W 122°22'0 0.0
2017-Dec-09 06:00N 37°55' W 122°22'0 0.0
2017-Dec-09 05:30N 37°55' W 122°22'0 0.0
2017-Dec-09 05:00N 37°55' W 122°22'0 0.0
2017-Dec-09 04:30N 37°55' W 122°22'0 0.0
2017-Dec-09 04:00N 37°55' W 122°22'0 0.0
2017-Dec-09 03:30N 37°55' W 122°22'0 0.0
2017-Dec-09 03:00N 37°55' W 122°22'0 0.0
2017-Dec-09 02:27N 37°55' W 122°22'0 0.0
2017-Dec-09 02:00N 37°55' W 122°22'0 0.1
2017-Dec-09 01:30N 37°55' W 122°22'0 0.1
2017-Dec-09 01:00N 37°55' W 122°22'0 0.0
2017-Dec-09 00:27N 37°55' W 122°22'0 0.0
2017-Dec-09 00:00N 37°55' W 122°22'0 0.0
2017-Dec-08 23:27N 37°55' W 122°22'0 0.0
2017-Dec-08 22:57N 37°55' W 122°22'0 0.0
2017-Dec-08 22:30N 37°55' W 122°22'0 0.0
2017-Dec-08 22:00N 37°55' W 122°22'0 0.0
2017-Dec-08 21:30N 37°55' W 122°22'0 0.0
2017-Dec-08 21:00N 37°55' W 122°22'0 0.0
2017-Dec-08 20:24N 37°55' W 122°22'0 0.0
2017-Dec-08 20:00N 37°55' W 122°22'0 0.0
2017-Dec-08 19:27N 37°55' W 122°22'0 0.0
2017-Dec-08 19:00N 37°55' W 122°22'0 0.0
2017-Dec-08 18:30N 37°55' W 122°22'0 0.0
2017-Dec-08 18:00N 37°55' W 122°22'0 0.0
2017-Dec-08 17:30N 37°55' W 122°22'0 0.0
2017-Dec-08 16:48N 37°55' W 122°22'0 0.0
2017-Dec-08 16:30N 37°55' W 122°22'0 0.0
2017-Dec-08 16:00N 37°55' W 122°22'0 0.0
2017-Dec-08 15:24N 37°55' W 122°22'2 5.0
2017-Dec-08 15:01N 37°55' W 122°24'1 2.1
2017-Dec-08 14:31N 37°55' W 122°25'0 0.5
2017-Dec-08 14:01N 37°55' W 122°25'1 2.2
2017-Dec-08 13:30N 37°54' W 122°25'3 5.7
2017-Dec-08 13:01N 37°51' W 122°24'4 7.5
2017-Dec-08 12:30N 37°49' W 122°28'4 7.5
2017-Dec-08 12:00N 37°47' W 122°32'4 8.1
2017-Dec-08 11:30N 37°46' W 122°37'5 6.9
2017-Dec-08 10:51N 37°42' W 122°40'3 8.5
2017-Dec-08 10:30N 37°40' W 122°40'9 7.9
2017-Dec-08 09:23N 37°31' W 122°40'4 7.0
2017-Dec-08 08:53N 37°27' W 122°40'3 6.9
2017-Dec-08 08:30N 37°24' W 122°40'5 7.2
2017-Dec-08 07:47N 37°19' W 122°40'7 7.2
2017-Dec-08 06:50N 37°13' W 122°40'47 7.9
2017-Dec-08 00:51N 36°25' W 122°33'7 8.3
2017-Dec-08 00:04N 36°20' W 122°29'1 7.9
2017-Dec-07 23:59N 36°19' W 122°29'4 8.2
2017-Dec-07 23:31N 36°16' W 122°27'4 7.6
2017-Dec-07 23:01N 36°12' W 122°25'4 8.7
2017-Dec-07 22:30N 36°08' W 122°23'4 8.7
2017-Dec-07 22:01N 36°04' W 122°20'4 8.6
2017-Dec-07 21:31N 36°01' W 122°17'4 8.7
2017-Dec-07 21:00N 35°57' W 122°15'5 9.1
2017-Dec-07 20:27N 35°52' W 122°11'4 9.4
2017-Dec-07 19:58N 35°49' W 122°09'4 9.4
2017-Dec-07 19:30N 35°45' W 122°06'5 9.2
2017-Dec-07 19:01N 35°41' W 122°03'4 8.6
2017-Dec-07 18:31N 35°37' W 122°00'4 8.7
2017-Dec-07 18:01N 35°34' W 121°57'5 9.0
2017-Dec-07 17:30N 35°30' W 121°55'5 9.1
2017-Dec-07 17:01N 35°26' W 121°52'5 9.1
2017-Dec-07 16:31N 35°22' W 121°49'5 9.2
2017-Dec-07 16:00N 35°18' W 121°46'5 9.1
2017-Dec-07 15:31N 35°14' W 121°43'5 9.1
2017-Dec-07 15:01N 35°10' W 121°40'4 9.0
2017-Dec-07 14:31N 35°06' W 121°38'4 8.8
2017-Dec-07 14:00N 35°02' W 121°35'4 9.0
2017-Dec-07 13:31N 34°59' W 121°32'4 8.8
2017-Dec-07 13:01N 34°55' W 121°29'4 8.9
2017-Dec-07 12:31N 34°51' W 121°26'4 8.9
2017-Dec-07 12:01N 34°47' W 121°23'4 8.9
2017-Dec-07 11:30N 34°43' W 121°21'4 8.7
2017-Dec-07 11:00N 34°40' W 121°18'4 8.8
2017-Dec-07 10:30N 34°36' W 121°15'4 8.7
2017-Dec-07 10:01N 34°32' W 121°13'4 8.8
2017-Dec-07 09:31N 34°28' W 121°10'5 8.9
2017-Dec-07 09:00N 34°24' W 121°07'4 8.9
2017-Dec-07 08:31N 34°21' W 121°05'5 9.0
2017-Dec-07 08:01N 34°17' W 121°02'5 9.3
2017-Dec-07 07:30N 34°13' W 120°59'510.0
2017-Dec-07 07:01N 34°09' W 120°55'5 9.9
2017-Dec-07 06:30N 34°04' W 120°52'5 9.5
2017-Dec-07 05:58N 34°01' W 120°48'4 9.6
2017-Dec-07 05:30N 33°59' W 120°43'5 9.6
2017-Dec-07 05:01N 33°56' W 120°38'5 9.6
2017-Dec-07 04:30N 33°54' W 120°33'5 9.4
2017-Dec-07 04:01N 33°52' W 120°28'5 9.0
2017-Dec-07 03:31N 33°49' W 120°24'5 9.2
2017-Dec-07 03:00N 33°47' W 120°19'5 9.4
2017-Dec-07 02:30N 33°44' W 120°14'5 9.3
2017-Dec-07 01:59N 33°43' W 120°08'4 8.6
2017-Dec-07 01:30N 33°43' W 120°04'4 8.7
2017-Dec-07 01:01N 33°43' W 119°58'5 9.2
2017-Dec-07 00:31N 33°43' W 119°53'5 9.1
2017-Dec-07 00:00N 33°42' W 119°47'12 9.6
2017-Dec-06 22:43N 33°42' W 119°33'6 9.3
2017-Dec-06 22:05N 33°42' W 119°25'1 9.8
2017-Dec-06 21:57N 33°42' W 119°24'5 9.6
2017-Dec-06 21:28N 33°42' W 119°18'4 9.2
2017-Dec-06 21:00N 33°42' W 119°13'  
Track history (hours):
 
Tides and Currents Weather Stations Pressure Air Temp Water Temp Dewpoint Dewpoint Depression Visibility Wind Speed Wind Dir Waves Ship Positions

Cochise

Owner: Sause Bros, Coos Bay, OR. More information available from US FCC via Universal Licensing System and Coast Guard Vessel Documentation Center.

Last reported at 2017-Dec-16 07:00 UTC. Time now 2017-Dec-16 07:17 UTC.
Position N 38°04' W 123°19'.

Length 32 m; draft 4.6 m.

Type: Towing. MMSI: 367304990.

Date/timePositionNaut miles runAvg speedWind from/ knotsBaromVisibWave heightAir tempDewpointWater temp
2017-Dec-16 07:00N 38°04' W 123°19'5 9.2
2017-Dec-16 06:30N 38°08' W 123°22'4 9.0
2017-Dec-16 06:00N 38°11' W 123°27'5 9.2
2017-Dec-16 05:30N 38°14' W 123°31'5 9.1
2017-Dec-16 05:00N 38°17' W 123°35'4 8.7
2017-Dec-16 04:30N 38°20' W 123°39'4 8.5
2017-Dec-16 04:00N 38°22' W 123°44'4 8.6
2017-Dec-16 03:30N 38°25' W 123°48'4 8.6
2017-Dec-16 03:00N 38°28' W 123°52'4 8.4
2017-Dec-16 02:29N 38°31' W 123°56'4 8.0
2017-Dec-16 01:59N 38°33' W 124°00'397 9.4
2017-Dec-14 07:35N 45°09' W 124°27'210.3
2017-Dec-14 07:26N 45°11' W 124°26'410.3
2017-Dec-14 07:00N 45°15' W 124°25'510.1
2017-Dec-14 06:30N 45°20' W 124°24'510.1
2017-Dec-14 06:00N 45°25' W 124°23'510.1
2017-Dec-14 05:30N 45°30' W 124°22'510.1
2017-Dec-14 05:00N 45°35' W 124°23'5 9.6
2017-Dec-14 04:31N 45°40' W 124°21'5 9.5
2017-Dec-14 04:00N 45°44' W 124°18'5 9.8
2017-Dec-14 03:30N 45°49' W 124°17'510.0
2017-Dec-14 03:00N 45°54' W 124°16'510.0
2017-Dec-14 02:30N 45°59' W 124°15'510.3
2017-Dec-14 02:00N 46°04' W 124°13'510.2
2017-Dec-14 01:30N 46°09' W 124°11'510.0
2017-Dec-14 01:00N 46°13' W 124°08'510.5
2017-Dec-14 00:30N 46°15' W 124°01'613.0
2017-Dec-14 00:00N 46°11' W 123°53'712.9
2017-Dec-13 23:28N 46°14' W 123°43'612.3
2017-Dec-13 23:00N 46°15' W 123°36'611.6
2017-Dec-13 22:31N 46°16' W 123°27'611.4
2017-Dec-13 22:00N 46°10' W 123°25'611.0
2017-Dec-13 21:30N 46°09' W 123°17'611.4
2017-Dec-13 21:00N 46°11' W 123°10'510.9
2017-Dec-13 20:30N 46°09' W 123°03'510.6
2017-Dec-13 19:59N 46°06' W 122°56'5 9.8
2017-Dec-13 19:30N 46°02' W 122°53'510.5
2017-Dec-13 19:00N 45°57' W 122°49'510.8
2017-Dec-13 18:30N 45°52' W 122°47'511.0
2017-Dec-13 18:00N 45°47' W 122°46'611.6
2017-Dec-13 17:30N 45°41' W 122°47'5 9.1
2017-Dec-13 17:00N 45°36' W 122°47'3 6.0
2017-Dec-13 16:30N 45°34' W 122°44'0 0.3
2017-Dec-13 16:00N 45°34' W 122°44'0 0.1
2017-Dec-13 15:30N 45°34' W 122°44'2 3.5
2017-Dec-13 15:00N 45°33' W 122°42'0 0.0
2017-Dec-13 14:31N 45°33' W 122°42'0 0.0
2017-Dec-13 14:00N 45°33' W 122°42'0 0.0
2017-Dec-13 13:30N 45°33' W 122°42'0 0.0
2017-Dec-13 13:00N 45°33' W 122°42'0 0.0
2017-Dec-13 12:30N 45°33' W 122°42'0 0.0
2017-Dec-13 12:00N 45°33' W 122°42'0 0.0
2017-Dec-13 11:30N 45°33' W 122°42'0 0.0
2017-Dec-13 11:00N 45°33' W 122°42'0 0.0
2017-Dec-13 10:31N 45°33' W 122°42'1 3.0
2017-Dec-13 10:00N 45°34' W 122°44'0 0.0
2017-Dec-13 09:30N 45°34' W 122°44'0 0.0
2017-Dec-13 09:00N 45°34' W 122°44'0 0.0
2017-Dec-13 08:30N 45°34' W 122°44'0 0.0
2017-Dec-13 08:00N 45°34' W 122°44'0 0.0
2017-Dec-13 07:31N 45°34' W 122°44'0 0.0
2017-Dec-13 07:01N 45°34' W 122°44'0 0.0
2017-Dec-13 06:31N 45°34' W 122°44'0 0.0
2017-Dec-13 06:01N 45°34' W 122°44'0 0.0
2017-Dec-13 05:30N 45°34' W 122°44'0 0.0
2017-Dec-13 05:00N 45°34' W 122°44'1 1.9
2017-Dec-13 04:30N 45°33' W 122°43'1 1.1
2017-Dec-13 04:00N 45°33' W 122°42'0 0.0
2017-Dec-13 03:30N 45°33' W 122°42'2 3.4
2017-Dec-13 03:00N 45°34' W 122°44'0 0.1
2017-Dec-13 02:30N 45°34' W 122°44'1 1.7
2017-Dec-13 02:00N 45°35' W 122°45'4 7.5
2017-Dec-13 01:29N 45°39' W 122°47'4 7.8
2017-Dec-13 01:01N 45°42' W 122°46'4 8.0
2017-Dec-13 00:30N 45°46' W 122°46'4 7.7
2017-Dec-13 00:01N 45°50' W 122°47'4 7.4
2017-Dec-12 23:30N 45°54' W 122°48'4 7.7
2017-Dec-12 23:00N 45°58' W 122°49'4 7.9
2017-Dec-12 22:31N 46°01' W 122°51'4 7.8
2017-Dec-12 22:01N 46°05' W 122°54'4 8.0
2017-Dec-12 21:31N 46°07' W 122°58'4 8.2
2017-Dec-12 21:00N 46°09' W 123°03'4 8.4
2017-Dec-12 20:30N 46°11' W 123°08'4 8.3
2017-Dec-12 20:01N 46°10' W 123°14'5 8.5
2017-Dec-12 19:25N 46°09' W 123°21'4 8.7
2017-Dec-12 18:58N 46°11' W 123°26'4 9.0
2017-Dec-12 18:30N 46°15' W 123°26'4 8.5
2017-Dec-12 18:00N 46°16' W 123°33'5 9.8
2017-Dec-12 17:31N 46°15' W 123°40'510.0
2017-Dec-12 17:00N 46°13' W 123°46'510.0
2017-Dec-12 16:30N 46°11' W 123°53'5 9.6
2017-Dec-12 16:00N 46°14' W 123°59'5 9.1
2017-Dec-12 15:30N 46°15' W 124°05'4 8.7
2017-Dec-12 15:00N 46°12' W 124°10'4 8.9
2017-Dec-12 14:30N 46°09' W 124°15'5 9.4
2017-Dec-12 14:00N 46°06' W 124°19'5 9.5
2017-Dec-12 13:31N 46°02' W 124°24'5 9.3
2017-Dec-12 13:00N 45°59' W 124°29'5 9.4
2017-Dec-12 12:30N 45°56' W 124°33'5 9.1
2017-Dec-12 12:00N 45°52' W 124°37'5 9.6
2017-Dec-12 11:30N 45°47' W 124°37'5 9.5
2017-Dec-12 11:00N 45°42' W 124°37'5 9.3
2017-Dec-12 10:30N 45°38' W 124°38'5 9.6
2017-Dec-12 10:00N 45°33' W 124°38'5 9.6
2017-Dec-12 09:30N 45°28' W 124°39'5 9.3
2017-Dec-12 09:00N 45°23' W 124°39'5 9.3
2017-Dec-12 08:30N 45°19' W 124°39'5 9.4
2017-Dec-12 08:00N 45°14' W 124°40'5 9.5
2017-Dec-12 07:30N 45°09' W 124°41'5 9.4
2017-Dec-12 07:00N 45°05' W 124°41'5 9.1
2017-Dec-12 06:30N 45°00' W 124°42'14 9.0
2017-Dec-12 04:56N 44°46' W 124°42'378 9.1
2017-Dec-10 11:19N 38°29' W 123°58'3 9.5
2017-Dec-10 10:57N 38°26' W 123°55'4 9.5
2017-Dec-10 10:30N 38°23' W 123°52'5 9.4
2017-Dec-10 10:00N 38°19' W 123°48'5 9.1
2017-Dec-10 09:30N 38°17' W 123°43'5 9.2
2017-Dec-10 08:59N 38°15' W 123°37'4 9.1
2017-Dec-10 08:30N 38°14' W 123°32'5 9.2
2017-Dec-10 08:00N 38°12' W 123°27'5 9.0
2017-Dec-10 07:30N 38°10' W 123°22'5 9.0
2017-Dec-10 07:00N 38°07' W 123°18'4 9.1
2017-Dec-10 06:30N 38°03' W 123°14'5 9.2
2017-Dec-10 06:00N 38°00' W 123°10'5 9.1
2017-Dec-10 05:30N 37°57' W 123°05'5 9.1
2017-Dec-10 05:00N 37°55' W 123°00'5 9.4
2017-Dec-10 04:30N 37°53' W 122°55'5 9.4
2017-Dec-10 03:59N 37°50' W 122°50'5 9.6
2017-Dec-10 03:26N 37°47' W 122°44'4 9.7
2017-Dec-10 03:00N 37°46' W 122°39'510.3
2017-Dec-10 02:30N 37°48' W 122°33'511.0
2017-Dec-10 02:00N 37°50' W 122°27'4 8.2
2017-Dec-10 01:30N 37°54' W 122°25'1 2.9
2017-Dec-10 01:00N 37°54' W 122°23'1 2.5
2017-Dec-10 00:30N 37°55' W 122°22'0 0.0
2017-Dec-10 00:01N 37°55' W 122°22'0 0.0
2017-Dec-09 23:24N 37°55' W 122°22'0 0.0
2017-Dec-09 23:00N 37°55' W 122°22'0 0.0
2017-Dec-09 22:30N 37°55' W 122°22'0 0.0
2017-Dec-09 22:00N 37°55' W 122°22'0 0.0
2017-Dec-09 21:30N 37°55' W 122°22'0 0.0
2017-Dec-09 21:00N 37°55' W 122°22'0 0.0
2017-Dec-09 20:30N 37°55' W 122°22'0 0.0
2017-Dec-09 19:57N 37°55' W 122°22'0 0.0
2017-Dec-09 19:30N 37°55' W 122°22'0 0.0
2017-Dec-09 18:57N 37°55' W 122°22'0 0.0
2017-Dec-09 18:27N 37°55' W 122°22'0 0.0
2017-Dec-09 18:00N 37°55' W 122°22'0 0.1
2017-Dec-09 17:27N 37°55' W 122°22'0 0.1
2017-Dec-09 17:00N 37°55' W 122°22'0 0.1
2017-Dec-09 16:27N 37°55' W 122°22'0 0.1
2017-Dec-09 16:00N 37°55' W 122°22'0 0.0
2017-Dec-09 15:30N 37°55' W 122°22'0 0.0
2017-Dec-09 15:00N 37°55' W 122°22'0 0.0
2017-Dec-09 14:30N 37°55' W 122°22'0 0.0
2017-Dec-09 14:00N 37°55' W 122°22'0 0.0
2017-Dec-09 13:30N 37°55' W 122°22'0 0.0
2017-Dec-09 13:00N 37°55' W 122°22'0 0.0
2017-Dec-09 12:30N 37°55' W 122°22'0 0.0
2017-Dec-09 12:00N 37°55' W 122°22'0 0.0
2017-Dec-09 11:30N 37°55' W 122°22'0 0.0
2017-Dec-09 11:00N 37°55' W 122°22'0 0.0
2017-Dec-09 10:30N 37°55' W 122°22'0 0.1
2017-Dec-09 10:00N 37°55' W 122°22'0 0.1
2017-Dec-09 09:30N 37°55' W 122°22'0 0.0
2017-Dec-09 09:00N 37°55' W 122°22'0 0.0
2017-Dec-09 08:27N 37°55' W 122°22'0 0.0
2017-Dec-09 07:57N 37°55' W 122°22'0 0.0
2017-Dec-09 07:30N 37°55' W 122°22'0 0.0
2017-Dec-09 06:51N 37°55' W 122°22'0 0.0
2017-Dec-09 06:30N 37°55' W 122°22'0 0.0
2017-Dec-09 06:00N 37°55' W 122°22'0 0.0
2017-Dec-09 05:30N 37°55' W 122°22'0 0.0
2017-Dec-09 05:00N 37°55' W 122°22'0 0.0
2017-Dec-09 04:30N 37°55' W 122°22'0 0.0
2017-Dec-09 04:00N 37°55' W 122°22'0 0.0
2017-Dec-09 03:30N 37°55' W 122°22'0 0.0
2017-Dec-09 03:00N 37°55' W 122°22'0 0.0
2017-Dec-09 02:27N 37°55' W 122°22'0 0.0
2017-Dec-09 02:00N 37°55' W 122°22'0 0.1
2017-Dec-09 01:30N 37°55' W 122°22'0 0.1
2017-Dec-09 01:00N 37°55' W 122°22'0 0.0
2017-Dec-09 00:27N 37°55' W 122°22'0 0.0
2017-Dec-09 00:00N 37°55' W 122°22'0 0.0
2017-Dec-08 23:27N 37°55' W 122°22'0 0.0
2017-Dec-08 22:57N 37°55' W 122°22'0 0.0
2017-Dec-08 22:30N 37°55' W 122°22'0 0.0
2017-Dec-08 22:00N 37°55' W 122°22'0 0.0
2017-Dec-08 21:30N 37°55' W 122°22'0 0.0
2017-Dec-08 21:00N 37°55' W 122°22'0 0.0
2017-Dec-08 20:24N 37°55' W 122°22'0 0.0
2017-Dec-08 20:00N 37°55' W 122°22'0 0.0
2017-Dec-08 19:27N 37°55' W 122°22'0 0.0
2017-Dec-08 19:00N 37°55' W 122°22'0 0.0
2017-Dec-08 18:30N 37°55' W 122°22'0 0.0
2017-Dec-08 18:00N 37°55' W 122°22'0 0.0
2017-Dec-08 17:30N 37°55' W 122°22'0 0.0
2017-Dec-08 16:48N 37°55' W 122°22'0 0.0
2017-Dec-08 16:30N 37°55' W 122°22'0 0.0
2017-Dec-08 16:00N 37°55' W 122°22'0 0.0
2017-Dec-08 15:24N 37°55' W 122°22'2 5.0
2017-Dec-08 15:01N 37°55' W 122°24'1 2.1
2017-Dec-08 14:31N 37°55' W 122°25'0 0.5
2017-Dec-08 14:01N 37°55' W 122°25'1 2.2
2017-Dec-08 13:30N 37°54' W 122°25'3 5.7
2017-Dec-08 13:01N 37°51' W 122°24'4 7.5
2017-Dec-08 12:30N 37°49' W 122°28'4 7.5
2017-Dec-08 12:00N 37°47' W 122°32'4 8.1
2017-Dec-08 11:30N 37°46' W 122°37'5 6.9
2017-Dec-08 10:51N 37°42' W 122°40'3 8.5
2017-Dec-08 10:30N 37°40' W 122°40'9 7.9
2017-Dec-08 09:23N 37°31' W 122°40'4 7.0
2017-Dec-08 08:53N 37°27' W 122°40'3 6.9
2017-Dec-08 08:30N 37°24' W 122°40'5 7.2
2017-Dec-08 07:47N 37°19' W 122°40'7 7.2
2017-Dec-08 06:50N 37°13' W 122°40'47 7.9
2017-Dec-08 00:51N 36°25' W 122°33'7 8.3
2017-Dec-08 00:04N 36°20' W 122°29'1 7.9
2017-Dec-07 23:59N 36°19' W 122°29'4 8.2
2017-Dec-07 23:31N 36°16' W 122°27'4 7.6
2017-Dec-07 23:01N 36°12' W 122°25'4 8.7
2017-Dec-07 22:30N 36°08' W 122°23'4 8.7
2017-Dec-07 22:01N 36°04' W 122°20'4 8.6
2017-Dec-07 21:31N 36°01' W 122°17'4 8.7
2017-Dec-07 21:00N 35°57' W 122°15'5 9.1
2017-Dec-07 20:27N 35°52' W 122°11'4 9.4
2017-Dec-07 19:58N 35°49' W 122°09'4 9.4
2017-Dec-07 19:30N 35°45' W 122°06'5 9.2
2017-Dec-07 19:01N 35°41' W 122°03'4 8.6
2017-Dec-07 18:31N 35°37' W 122°00'4 8.7
2017-Dec-07 18:01N 35°34' W 121°57'5 9.0
2017-Dec-07 17:30N 35°30' W 121°55'5 9.1
2017-Dec-07 17:01N 35°26' W 121°52'5 9.1
2017-Dec-07 16:31N 35°22' W 121°49'5 9.2
2017-Dec-07 16:00N 35°18' W 121°46'5 9.1
2017-Dec-07 15:31N 35°14' W 121°43'5 9.1
2017-Dec-07 15:01N 35°10' W 121°40'4 9.0
2017-Dec-07 14:31N 35°06' W 121°38'4 8.8
2017-Dec-07 14:00N 35°02' W 121°35'4 9.0
2017-Dec-07 13:31N 34°59' W 121°32'4 8.8
2017-Dec-07 13:01N 34°55' W 121°29'4 8.9
2017-Dec-07 12:31N 34°51' W 121°26'4 8.9
2017-Dec-07 12:01N 34°47' W 121°23'4 8.9
2017-Dec-07 11:30N 34°43' W 121°21'4 8.7
2017-Dec-07 11:00N 34°40' W 121°18'4 8.8
2017-Dec-07 10:30N 34°36' W 121°15'4 8.7
2017-Dec-07 10:01N 34°32' W 121°13'4 8.8
2017-Dec-07 09:31N 34°28' W 121°10'5 8.9
2017-Dec-07 09:00N 34°24' W 121°07'4 8.9
2017-Dec-07 08:31N 34°21' W 121°05'5 9.0
2017-Dec-07 08:01N 34°17' W 121°02'5 9.3
2017-Dec-07 07:30N 34°13' W 120°59'510.0
2017-Dec-07 07:01N 34°09' W 120°55'5 9.9
2017-Dec-07 06:30N 34°04' W 120°52'5 9.5
2017-Dec-07 05:58N 34°01' W 120°48'4 9.6
2017-Dec-07 05:30N 33°59' W 120°43'5 9.6
2017-Dec-07 05:01N 33°56' W 120°38'5 9.6
2017-Dec-07 04:30N 33°54' W 120°33'5 9.4
2017-Dec-07 04:01N 33°52' W 120°28'5 9.0
2017-Dec-07 03:31N 33°49' W 120°24'5 9.2
2017-Dec-07 03:00N 33°47' W 120°19'5 9.4
2017-Dec-07 02:30N 33°44' W 120°14'5 9.3
2017-Dec-07 01:59N 33°43' W 120°08'4 8.6
2017-Dec-07 01:30N 33°43' W 120°04'4 8.7
2017-Dec-07 01:01N 33°43' W 119°58'5 9.2
2017-Dec-07 00:31N 33°43' W 119°53'5 9.1
2017-Dec-07 00:00N 33°42' W 119°47'12 9.6
2017-Dec-06 22:43N 33°42' W 119°33'6 9.3
2017-Dec-06 22:05N 33°42' W 119°25'1 9.8
2017-Dec-06 21:57N 33°42' W 119°24'5 9.6
2017-Dec-06 21:28N 33°42' W 119°18'4 9.2
2017-Dec-06 21:00N 33°42' W 119°13'  

Dump ship's entire track history